Koji Ueda

Scout - Omiya Ardija
5 Nov 2028
Sonntag
Verarbeitung

Persönlichkeit

Anpassungsfähigkeit (18) Ehrgeiz (19) Kontroverse (17) Loyalität (3) Druck (2) Professionalität (10) Fairness (10) Temperament (19)

Profil

Trainerstil Demokratisch
Lizenz Kontinentale C
Entschlossenheit 9
Menschenführung 10
Motivation 6
Disziplin 11
Arbeitszufriedenheit
100%
Ermüdung
0%
Rolle Scout
Gehalt 60.0K p/W
Vertrag 14.03.2030

Leistung

Verhalten Gut
Trainingseffektivität
35%
Spielerentwicklung
45%
Verletzungsprävention
20%
Taktische Umsetzung
40%

Letzte Ereignisse

Spieler begutachtet jetzt
Nahm an einer Scouting-Besprechung teil jetzt
Empfahl ein Transferziel jetzt
Spieler begutachtet jetzt
Spieler begutachtet jetzt
Spieler begutachtet jetzt
Spieler begutachtet 7T her
Spieler begutachtet 7T her

Aktuell beobachtet

133
Spieler Verein Status Fähigkeit Vertrauen Beobachtet Zuletzt beobachtet Letzte Stimme
Esteban Obregón Montevideo City Torque Aktiv 120 / 130 40% 5 04.11.2028 -
Alexander Díaz Deportivo Riestra Aktiv 126 / 128 40% 4 04.11.2028 -
Julian Herrera Cortulua Aktiv 126 / 110 40% 5 03.11.2028 -
Alejo Cruz Juventud Aktiv 136 / 113 40% 1 03.11.2028 -
Juan David Rueda Alianza Petrolera Aktiv 103 / 109 40% 1 03.11.2028 -
Diego Castillo Aguilas Doradas Aktiv 119 / 110 40% 2 02.11.2028 -
Patrick Preciado Deportivo Pasto Aktiv 109 / 117 40% 2 02.11.2028 -
José Balza Deportivo Tachira Aktiv 112 / 106 40% 1 02.11.2028 -
Werik Popo Avispa Fukuoka Aktiv 116 / 112 40% 2 01.11.2028 -
Samuel Anakwe Remo Stars Aktiv 103 / 92 40% 1 01.11.2028 -
Agustín Rodríguez Juventud Aktiv 133 / 136 40% 4 31.10.2028 -
Franco García Molde Aktiv 111 / 109 40% 1 31.10.2028 -
Lisandro Cabrera Maipú Aktiv 106 / 103 40% 1 30.10.2028 -
Leandro Suhr Boston River Aktiv 115 / 106 40% 2 28.10.2028 -
Jonás Luna Wanderers Aktiv 117 / 115 40% 2 28.10.2028 -
Lyle Foster Rosenborg Aktiv 144 / 139 40% 1 28.10.2028 -
Chukwuemeka Obioma Abia Warriors Aktiv 107 / 107 40% 2 27.10.2028 -
Rodrigo Auzmendi Banfield Aktiv 114 / 133 40% 1 27.10.2028 -
José Barreto Quilmes Aktiv 113 / 123 40% 2 26.10.2028 -
Yota Komi Kashiwa Reysol Aktiv 130 / 122 40% 1 26.10.2028 -
Sunusi Ibrahim Vegalta Sendai Aktiv 116 / 110 40% 1 26.10.2028 -
Santiago Sala Güemes Aktiv 114 / 113 40% 4 25.10.2028 -
Enzo González Defensores Aktiv 102 / 101 40% 4 25.10.2028 -
Miguel Pereira Persebaya Aktiv 126 / 116 40% 1 25.10.2028 -
Nicolás Ferreira Wanderers Aktiv 116 / 120 40% 5 24.10.2028 -
Emiliano Gómez Boston River Aktiv 115 / 112 40% 4 19.10.2028 -
Mauricio Márquez Caracas Aktiv 115 / 104 40% 2 19.10.2028 -
Facundo Krüger Temperley Aktiv 121 / 110 40% 1 19.10.2028 -
Jhon Murillo Jaguares Aktiv 124 / 107 40% 1 18.10.2028 -
Michael Nike Patriotas Aktiv 101 / 97 40% 2 16.10.2028 -
Shunta Araki Vegalta Sendai Aktiv 120 / 120 40% 2 16.10.2028 -
Sebastián Cocimano Nueva Chicago Aktiv 115 / 114 40% 1 16.10.2028 -
Mauro Valiente Estudiantes Aktiv 110 / 117 40% 3 15.10.2028 -
Okardi Inikurogha Bayelsa United Aktiv 104 / 101 40% 2 15.10.2028 -
Gianluca Pugliese Güemes Aktiv 122 / 119 40% 3 14.10.2028 -
Agustín Gallo Tristán Suárez Aktiv 122 / 115 40% 1 11.10.2028 -
Tomás Jerez San Miguel Aktiv 113 / 116 40% 1 08.10.2028 -
Luciano Cosentino Wanderers Aktiv 131 / 120 40% 1 08.10.2028 -
Timothy Zechariah Rivers United Aktiv 98 / 91 40% 2 07.10.2028 -
Juan Hurtado Alianza Petrolera Aktiv 122 / 127 40% 1 06.10.2028 -
Daniel Barrea Godoy Cruz Aktiv 114 / 116 40% 2 03.10.2028 -
Jhonier Blanco Fortaleza CEIF Aktiv 105 / 102 40% 1 03.10.2028 -
Ruyery Blanco Alianza Petrolera Aktiv 120 / 111 40% 1 08.09.2028 -
Richard Figueroa Deportivo Lara Aktiv 115 / 109 40% 1 08.09.2028 -
Kelvin Flórez Deportes Tolima Aktiv 116 / 126 40% 2 05.09.2028 -
Augusto Berrondo Tristán Suárez Aktiv 115 / 119 40% 1 05.09.2028 -
Jorge Rivaldo Real Cartagena Aktiv 129 / 113 40% 2 04.09.2028 -
Francesco Petito Dolomiti Bellunesi Aktiv 101 / 114 40% 3 19.08.2028 -
Vanja Vlahović Spezia Aktiv 133 / 121 40% 1 19.08.2028 -
Simone Mazzocchi Cosenza Aktiv 134 / 111 40% 5 18.08.2028 -
Guillaume Furrer Lecco Aktiv 110 / 102 40% 3 18.08.2028 -
Adam Jakobsen Castellón Aktiv 124 / 124 40% 10 14.08.2028 -
Kaoru Osako Gamba Osaka Verhandlung 91 / 103 72% 1 14.08.2028 -
Mattia Iori Lumezzane Aktiv 107 / 114 40% 1 13.08.2028 -
Luca Mazzeo Picerno Aktiv 114 / 112 40% 1 12.08.2028 -
Jack Vale Sorrento Aktiv 98 / 116 40% 4 10.08.2028 -
Camillo Tavernelli Arezzo Aktiv 121 / 115 40% 3 10.08.2028 -
Liam Cullen Swansea City Aktiv 128 / 131 40% 5 09.08.2028 -
Carlos Gugenheim Grimsby Town Aktiv 110 / 105 40% 3 09.08.2028 -
Kylian Kouassi Colchester United Aktiv 102 / 96 40% 5 08.08.2028 -
Luca Vido Union Brescia Aktiv 117 / 105 40% 1 08.08.2028 -
Johnny Kenny Preston Aktiv 126 / 132 40% 6 07.08.2028 -
Tyrese Shade Burton Albion Aktiv 103 / 118 40% 5 07.08.2028 -
Aaron Collins Milton Keynes Dons Aktiv 121 / 126 40% 1 07.08.2028 -
Job Ochieng Real Sociedad Aktiv 119 / 104 40% 5 20.07.2028 -
Harvey Blair Portsmouth Aktiv 133 / 123 40% 1 20.07.2028 -
Will Davies Fleetwood Town Aktiv 104 / 92 40% 1 18.07.2028 -
Dale Taylor Blackpool Aktiv 125 / 127 40% 2 16.07.2028 -
Matteo Rover Reggiana Aktiv 129 / 115 40% 2 16.07.2028 -
Calum Kavanagh Oldham Athletic Aktiv 107 / 110 40% 4 15.07.2028 -
Justin Obikwu Queens Park Rangers Aktiv 105 / 100 40% 6 15.07.2028 -
Emanuele Schimmenti Potenza Aktiv 129 / 110 40% 1 15.07.2028 -
Tyler Roberts Mansfield Town Aktiv 102 / 106 40% 1 14.07.2028 -
Tyler Walton Bromley Aktiv 99 / 108 40% 5 13.07.2028 -
Ole Romeny Oxford United Aktiv 125 / 122 40% 4 13.07.2028 -
Marco Tumminello Benevento Aktiv 112 / 109 40% 4 13.07.2028 -
Sam Dalby Bolton Wanderers Aktiv 113 / 119 40% 4 12.07.2028 -
Álvaro García Castellón Aktiv 120 / 134 40% 5 11.07.2028 -
Danny Butterworth Accrington Stanley Aktiv 97 / 108 40% 2 09.07.2028 -
Sam Nombe Milton Keynes Dons Aktiv 118 / 116 40% 10 08.07.2028 -
Emanuele Scipioni Monopoli Aktiv 119 / 110 40% 1 08.07.2028 -
Ante Crnac Bristol Rovers Aktiv 125 / 129 40% 4 05.07.2028 -
Dany Jean Torreense Aktiv 119 / 106 40% 5 03.07.2028 -
Ekain Orobengoa Real Sociedad Aktiv 101 / 118 40% 1 03.07.2028 -
Alassana Jatta Notts County Aktiv 112 / 104 40% 1 01.07.2028 -
Ryan Graydon Salford City Aktiv 114 / 107 40% 5 30.06.2028 -
Alan Cisnero Exeter City Aktiv 105 / 100 40% 1 30.06.2028 -
Admir Bristrić Cambridge United Aktiv 122 / 118 40% 2 26.06.2028 -
George Lloyd Shrewsbury Town Aktiv 103 / 101 40% 1 26.06.2028 -
Rayan Kolli Queens Park Rangers Aktiv 124 / 116 40% 1 26.06.2028 -
Josh Stokes Bristol City Aktiv 116 / 132 40% 3 25.06.2028 -
Layton Stewart Barnet Aktiv 110 / 111 40% 3 22.06.2028 -
Luca Moro Padova Aktiv 136 / 121 40% 1 22.06.2028 -
Álex Millán Leganés Aktiv 109 / 113 40% 2 20.06.2028 -
Manuel De Luca Cremonese Aktiv 136 / 127 40% 3 19.06.2028 -
Louis Appéré Cambridge United Aktiv 115 / 94 40% 1 16.06.2028 -
Joshua Ajala Walsall Aktiv 110 / 106 40% 4 15.06.2028 -
Mees Rijks Bristol Rovers Aktiv 128 / 116 40% 5 15.06.2028 -
Anthony Scully Shrewsbury Town Aktiv 112 / 97 40% 4 13.06.2028 -
Armstrong Oko-Flex Levski Aktiv 123 / 129 40% 5 11.06.2028 -
Olaf Kobacki Sheffield Wednesday Aktiv 106 / 124 40% 4 11.06.2028 -
Jalen Blesa Oliveirense Aktiv 133 / 118 40% 4 11.06.2028 -
Kaye Furo Reading Aktiv 134 / 137 40% 2 09.06.2028 -
Fábio Jaló Barnsley Aktiv 110 / 101 40% 1 07.06.2028 -
Miro Arsenal Tula Aktiv 122 / 116 40% 11 05.06.2028 -
Timur Suleimanov Nizhniy Novgorod Aktiv 119 / 111 40% 3 05.06.2028 -
Rocco Vata Watford Aktiv 131 / 121 40% 1 29.05.2028 -
Kleis Bozhanaj Modena Aktiv 128 / 126 40% 3 25.05.2028 -
Jorge Delgado Cultural Leonesa Aktiv 109 / 125 40% 3 24.05.2028 -
Fernando Penafiel Aktiv 128 / 134 40% 4 20.05.2028 -
Jorge Cabezas Hurtado Watford Aktiv 115 / 115 40% 4 15.05.2028 -
Kuki Zalazar Ceuta Aktiv 125 / 119 40% 1 05.05.2028 -
Gabriele Gori Ascoli Aktiv 111 / 103 40% 1 03.05.2028 -
Christian Saydee Wigan Athletic Aktiv 128 / 109 40% 1 28.04.2028 -
Pau Sans Zaragoza Aktiv 120 / 122 40% 1 28.04.2028 -
Ondřej Lingr Korona Aktiv 135 / 122 40% 2 26.04.2028 -
Zé Leite Moreirense Aktiv 114 / 127 40% 2 24.04.2028 -
David Ankeye Zeleznicar Pancevo Aktiv 118 / 112 40% 1 23.04.2028 -
Vyacheslav Grulev Nizhniy Novgorod Aktiv 109 / 117 40% 1 17.04.2028 -
Wendel Silva Santa Clara Aktiv 122 / 115 40% 2 14.04.2028 -
Bashar Musa US Forces Armees Aktiv 95 / 103 40% 2 12.04.2028 -
Dawda Camara Alverca Aktiv 131 / 121 40% 1 12.04.2028 -
Figueiredo Alverca Aktiv 145 / 131 40% 1 05.04.2028 -
Adam Idah Swansea City Aktiv 126 / 125 40% 1 04.04.2028 -
Matheus Davó Maccabi Netanya Aktiv 134 / 111 40% 1 02.04.2028 -
Seidu Basit Ashanti Gold Aktiv 102 / 89 40% 2 01.04.2028 -
Guilherme Neiva AVS Aktiv 104 / 117 40% 1 29.03.2028 -
André Lacximicant Estoril Praia Aktiv 127 / 111 40% 1 24.03.2028 -
Brayan Gil Baltika Aktiv 133 / 116 40% 2 22.03.2028 -
Juan Manuel Boselli Rubin Aktiv 128 / 119 40% 1 21.03.2028 -
Wesley Pomba Rukh Aktiv 112 / 116 40% 1 20.03.2028 -
Kahiser Lenis Ceará Aktiv 127 / 117 40% 1 18.03.2028 -
Yuji Ono Albirex Niigata Aktiv 104 / 108 65% 1 22.02.2027 Befürworten